sensor_id;sensor_type;location;lat;lon;timestamp;temperature;humidity
24518;DHT22;12678;51.336;12.406;2023-08-17T00:00:06;23.40;99.90
24518;DHT22;12678;51.336;12.406;2023-08-17T00:02:36;23.40;99.90
24518;DHT22;12678;51.336;12.406;2023-08-17T00:05:02;23.40;99.90
24518;DHT22;12678;51.336;12.406;2023-08-17T00:07:27;23.20;99.90
24518;DHT22;12678;51.336;12.406;2023-08-17T00:09:53;23.20;99.90
24518;DHT22;12678;51.336;12.406;2023-08-17T00:12:18;23.10;99.90
24518;DHT22;12678;51.336;12.406;2023-08-17T00:14:44;23.00;99.90
24518;DHT22;12678;51.336;12.406;2023-08-17T00:17:09;23.20;99.90
24518;DHT22;12678;51.336;12.406;2023-08-17T00:19:35;23.20;99.90
24518;DHT22;12678;51.336;12.406;2023-08-17T00:22:00;23.10;99.90
24518;DHT22;12678;51.336;12.406;2023-08-17T00:24:26;23.10;99.90
24518;DHT22;12678;51.336;12.406;2023-08-17T00:26:51;23.10;99.90
24518;DHT22;12678;51.336;12.406;2023-08-17T00:29:17;23.10;99.90
24518;DHT22;12678;51.336;12.406;2023-08-17T00:31:43;22.90;99.90
24518;DHT22;12678;51.336;12.406;2023-08-17T00:34:08;23.00;99.90
24518;DHT22;12678;51.336;12.406;2023-08-17T00:36:34;23.00;99.90
24518;DHT22;12678;51.336;12.406;2023-08-17T00:39:00;23.00;99.90
24518;DHT22;12678;51.336;12.406;2023-08-17T00:41:25;23.00;99.90
24518;DHT22;12678;51.336;12.406;2023-08-17T00:43:51;23.10;99.90
24518;DHT22;12678;51.336;12.406;2023-08-17T00:46:16;23.20;99.90
24518;DHT22;12678;51.336;12.406;2023-08-17T00:48:42;23.20;99.90
24518;DHT22;12678;51.336;12.406;2023-08-17T00:51:08;23.10;99.90
24518;DHT22;12678;51.336;12.406;2023-08-17T00:53:34;23.10;99.90
24518;DHT22;12678;51.336;12.406;2023-08-17T00:56:01;22.90;99.90
24518;DHT22;12678;51.336;12.406;2023-08-17T00:58:27;22.90;99.90
24518;DHT22;12678;51.336;12.406;2023-08-17T01:00:53;23.00;99.90
24518;DHT22;12678;51.336;12.406;2023-08-17T01:03:18;23.00;99.90
24518;DHT22;12678;51.336;12.406;2023-08-17T01:05:46;22.90;99.90
24518;DHT22;12678;51.336;12.406;2023-08-17T01:08:12;23.10;99.90
24518;DHT22;12678;51.336;12.406;2023-08-17T01:10:47;23.20;99.90
24518;DHT22;12678;51.336;12.406;2023-08-17T01:13:53;23.30;99.90
24518;DHT22;12678;51.336;12.406;2023-08-17T01:16:14;23.40;99.90
24518;DHT22;12678;51.336;12.406;2023-08-17T01:18:40;23.50;99.90
24518;DHT22;12678;51.336;12.406;2023-08-17T01:21:08;23.40;99.90
24518;DHT22;12678;51.336;12.406;2023-08-17T01:23:35;23.40;99.90
24518;DHT22;12678;51.336;12.406;2023-08-17T01:26:01;23.40;99.90
24518;DHT22;12678;51.336;12.406;2023-08-17T01:28:27;23.40;99.90
24518;DHT22;12678;51.336;12.406;2023-08-17T01:31:00;23.20;99.90
24518;DHT22;12678;51.336;12.406;2023-08-17T01:33:33;23.10;99.90
24518;DHT22;12678;51.336;12.406;2023-08-17T01:36:25;22.80;99.90
24518;DHT22;12678;51.336;12.406;2023-08-17T01:38:52;22.70;99.90
24518;DHT22;12678;51.336;12.406;2023-08-17T01:41:20;22.60;99.90
24518;DHT22;12678;51.336;12.406;2023-08-17T01:43:47;22.50;99.90
24518;DHT22;12678;51.336;12.406;2023-08-17T01:46:17;22.40;99.90
24518;DHT22;12678;51.336;12.406;2023-08-17T01:48:44;22.50;99.90
24518;DHT22;12678;51.336;12.406;2023-08-17T01:51:18;22.60;99.90
24518;DHT22;12678;51.336;12.406;2023-08-17T01:53:46;22.80;99.90
24518;DHT22;12678;51.336;12.406;2023-08-17T01:56:12;22.80;99.90
24518;DHT22;12678;51.336;12.406;2023-08-17T01:58:37;22.90;99.90
24518;DHT22;12678;51.336;12.406;2023-08-17T02:01:03;22.50;99.90
24518;DHT22;12678;51.336;12.406;2023-08-17T02:03:28;22.70;99.90
24518;DHT22;12678;51.336;12.406;2023-08-17T02:05:56;22.80;99.90
24518;DHT22;12678;51.336;12.406;2023-08-17T02:08:22;23.00;99.90
24518;DHT22;12678;51.336;12.406;2023-08-17T02:10:47;23.10;99.90
24518;DHT22;12678;51.336;12.406;2023-08-17T02:13:14;23.20;99.90
24518;DHT22;12678;51.336;12.406;2023-08-17T02:15:39;23.10;99.90
24518;DHT22;12678;51.336;12.406;2023-08-17T02:18:05;23.10;99.90
24518;DHT22;12678;51.336;12.406;2023-08-17T02:20:31;23.20;99.90
24518;DHT22;12678;51.336;12.406;2023-08-17T02:22:56;23.30;99.90
24518;DHT22;12678;51.336;12.406;2023-08-17T02:25:22;23.30;99.90
24518;DHT22;12678;51.336;12.406;2023-08-17T02:27:48;23.30;99.90
24518;DHT22;12678;51.336;12.406;2023-08-17T02:30:13;23.40;99.90
24518;DHT22;12678;51.336;12.406;2023-08-17T02:32:39;23.40;99.90
24518;DHT22;12678;51.336;12.406;2023-08-17T02:35:05;23.20;99.90
24518;DHT22;12678;51.336;12.406;2023-08-17T02:37:31;23.20;99.90
24518;DHT22;12678;51.336;12.406;2023-08-17T02:39:57;23.10;99.90
24518;DHT22;12678;51.336;12.406;2023-08-17T02:42:22;23.20;99.90
24518;DHT22;12678;51.336;12.406;2023-08-17T02:44:48;23.10;99.90
24518;DHT22;12678;51.336;12.406;2023-08-17T02:47:14;23.10;99.90
24518;DHT22;12678;51.336;12.406;2023-08-17T02:49:39;23.20;99.90
24518;DHT22;12678;51.336;12.406;2023-08-17T02:52:05;23.30;99.90
24518;DHT22;12678;51.336;12.406;2023-08-17T02:54:30;23.20;99.90
24518;DHT22;12678;51.336;12.406;2023-08-17T02:56:57;23.10;99.90
24518;DHT22;12678;51.336;12.406;2023-08-17T02:59:22;23.20;99.90
24518;DHT22;12678;51.336;12.406;2023-08-17T03:01:48;23.10;99.90
24518;DHT22;12678;51.336;12.406;2023-08-17T03:04:14;23.00;99.90
24518;DHT22;12678;51.336;12.406;2023-08-17T03:06:39;23.10;99.90
24518;DHT22;12678;51.336;12.406;2023-08-17T03:09:05;23.00;99.90
24518;DHT22;12678;51.336;12.406;2023-08-17T03:11:30;23.10;99.90
24518;DHT22;12678;51.336;12.406;2023-08-17T03:13:56;23.10;99.90
24518;DHT22;12678;51.336;12.406;2023-08-17T03:16:26;23.00;99.90
24518;DHT22;12678;51.336;12.406;2023-08-17T03:18:52;22.90;99.90
24518;DHT22;12678;51.336;12.406;2023-08-17T03:21:18;22.90;99.90
24518;DHT22;12678;51.336;12.406;2023-08-17T03:23:45;22.80;99.90
24518;DHT22;12678;51.336;12.406;2023-08-17T03:26:10;22.50;99.90
24518;DHT22;12678;51.336;12.406;2023-08-17T03:28:36;22.40;99.90
24518;DHT22;12678;51.336;12.406;2023-08-17T03:31:02;22.30;99.90
24518;DHT22;12678;51.336;12.406;2023-08-17T03:33:28;22.30;99.90
24518;DHT22;12678;51.336;12.406;2023-08-17T03:35:53;22.40;99.90
24518;DHT22;12678;51.336;12.406;2023-08-17T03:38:19;22.50;99.90
24518;DHT22;12678;51.336;12.406;2023-08-17T03:40:46;22.60;99.90
24518;DHT22;12678;51.336;12.406;2023-08-17T03:43:11;22.70;99.90
24518;DHT22;12678;51.336;12.406;2023-08-17T03:45:37;22.60;99.90
24518;DHT22;12678;51.336;12.406;2023-08-17T03:48:03;22.40;99.90
24518;DHT22;12678;51.336;12.406;2023-08-17T03:50:29;22.50;99.90
24518;DHT22;12678;51.336;12.406;2023-08-17T03:52:55;22.50;99.90
24518;DHT22;12678;51.336;12.406;2023-08-17T03:55:20;22.50;99.90
24518;DHT22;12678;51.336;12.406;2023-08-17T03:57:46;22.70;99.90
24518;DHT22;12678;51.336;12.406;2023-08-17T04:00:11;22.70;99.90
24518;DHT22;12678;51.336;12.406;2023-08-17T04:02:37;22.70;99.90
24518;DHT22;12678;51.336;12.406;2023-08-17T04:05:03;22.80;99.90
24518;DHT22;12678;51.336;12.406;2023-08-17T04:07:28;22.80;99.90
24518;DHT22;12678;51.336;12.406;2023-08-17T04:09:54;22.80;99.90
24518;DHT22;12678;51.336;12.406;2023-08-17T04:12:20;22.80;99.90
24518;DHT22;12678;51.336;12.406;2023-08-17T04:14:45;22.80;99.90
24518;DHT22;12678;51.336;12.406;2023-08-17T04:17:11;22.70;99.90
24518;DHT22;12678;51.336;12.406;2023-08-17T04:19:37;22.50;99.90
24518;DHT22;12678;51.336;12.406;2023-08-17T04:22:03;22.40;99.90
24518;DHT22;12678;51.336;12.406;2023-08-17T04:24:28;22.50;99.90
24518;DHT22;12678;51.336;12.406;2023-08-17T04:26:54;22.60;99.90
24518;DHT22;12678;51.336;12.406;2023-08-17T04:29:20;22.60;99.90
24518;DHT22;12678;51.336;12.406;2023-08-17T04:31:45;22.60;99.90
24518;DHT22;12678;51.336;12.406;2023-08-17T04:34:11;22.70;99.90
24518;DHT22;12678;51.336;12.406;2023-08-17T04:36:37;22.60;99.90
24518;DHT22;12678;51.336;12.406;2023-08-17T04:39:02;22.50;99.90
24518;DHT22;12678;51.336;12.406;2023-08-17T04:41:30;22.00;99.90
24518;DHT22;12678;51.336;12.406;2023-08-17T04:43:55;21.30;99.90
24518;DHT22;12678;51.336;12.406;2023-08-17T04:46:21;21.30;99.90
24518;DHT22;12678;51.336;12.406;2023-08-17T04:48:46;21.60;99.90
24518;DHT22;12678;51.336;12.406;2023-08-17T04:51:12;21.80;99.90
24518;DHT22;12678;51.336;12.406;2023-08-17T04:53:38;21.20;99.90
24518;DHT22;12678;51.336;12.406;2023-08-17T04:56:04;20.20;99.90
24518;DHT22;12678;51.336;12.406;2023-08-17T04:58:30;19.80;99.90
24518;DHT22;12678;51.336;12.406;2023-08-17T05:00:55;19.40;99.90
24518;DHT22;12678;51.336;12.406;2023-08-17T05:03:21;19.40;99.90
24518;DHT22;12678;51.336;12.406;2023-08-17T05:05:46;19.20;99.90
24518;DHT22;12678;51.336;12.406;2023-08-17T05:08:12;19.20;99.90
24518;DHT22;12678;51.336;12.406;2023-08-17T05:10:39;19.10;99.90
24518;DHT22;12678;51.336;12.406;2023-08-17T05:13:04;19.00;99.90
24518;DHT22;12678;51.336;12.406;2023-08-17T05:15:30;19.00;99.90
24518;DHT22;12678;51.336;12.406;2023-08-17T05:17:56;19.00;99.90
24518;DHT22;12678;51.336;12.406;2023-08-17T05:20:21;19.00;99.90
24518;DHT22;12678;51.336;12.406;2023-08-17T05:22:47;19.00;99.90
24518;DHT22;12678;51.336;12.406;2023-08-17T05:25:13;19.00;99.90
24518;DHT22;12678;51.336;12.406;2023-08-17T05:27:38;19.10;99.90
24518;DHT22;12678;51.336;12.406;2023-08-17T05:30:04;19.10;99.90
24518;DHT22;12678;51.336;12.406;2023-08-17T05:32:31;19.20;99.90
24518;DHT22;12678;51.336;12.406;2023-08-17T05:34:56;19.20;99.90
24518;DHT22;12678;51.336;12.406;2023-08-17T05:37:22;19.20;99.90
24518;DHT22;12678;51.336;12.406;2023-08-17T05:39:48;19.30;99.90
24518;DHT22;12678;51.336;12.406;2023-08-17T05:42:13;19.30;99.90
24518;DHT22;12678;51.336;12.406;2023-08-17T05:44:39;19.30;99.90
24518;DHT22;12678;51.336;12.406;2023-08-17T05:47:04;19.40;99.90
24518;DHT22;12678;51.336;12.406;2023-08-17T05:49:30;19.40;99.90
24518;DHT22;12678;51.336;12.406;2023-08-17T05:51:56;19.40;99.90
24518;DHT22;12678;51.336;12.406;2023-08-17T05:54:21;19.40;99.90
24518;DHT22;12678;51.336;12.406;2023-08-17T05:56:47;19.30;99.90
24518;DHT22;12678;51.336;12.406;2023-08-17T05:59:13;19.30;99.90
24518;DHT22;12678;51.336;12.406;2023-08-17T06:01:39;19.30;99.90
24518;DHT22;12678;51.336;12.406;2023-08-17T06:04:05;19.30;99.90
24518;DHT22;12678;51.336;12.406;2023-08-17T06:06:31;19.30;99.90
24518;DHT22;12678;51.336;12.406;2023-08-17T06:08:57;19.30;99.90
24518;DHT22;12678;51.336;12.406;2023-08-17T06:11:22;19.30;99.90
24518;DHT22;12678;51.336;12.406;2023-08-17T06:13:49;19.30;99.90
24518;DHT22;12678;51.336;12.406;2023-08-17T06:16:15;19.30;99.90
24518;DHT22;12678;51.336;12.406;2023-08-17T06:18:41;19.30;99.90
24518;DHT22;12678;51.336;12.406;2023-08-17T06:21:07;19.40;99.90
24518;DHT22;12678;51.336;12.406;2023-08-17T06:23:32;19.40;99.90
24518;DHT22;12678;51.336;12.406;2023-08-17T06:25:59;19.40;99.90
24518;DHT22;12678;51.336;12.406;2023-08-17T06:28:25;19.30;99.90
24518;DHT22;12678;51.336;12.406;2023-08-17T06:30:55;19.40;99.90
24518;DHT22;12678;51.336;12.406;2023-08-17T06:33:21;19.50;99.90
24518;DHT22;12678;51.336;12.406;2023-08-17T06:35:47;19.50;99.90
24518;DHT22;12678;51.336;12.406;2023-08-17T06:38:12;19.60;99.90
24518;DHT22;12678;51.336;12.406;2023-08-17T06:40:38;19.70;99.90
24518;DHT22;12678;51.336;12.406;2023-08-17T06:43:03;19.90;99.90
24518;DHT22;12678;51.336;12.406;2023-08-17T06:45:31;20.00;99.90
24518;DHT22;12678;51.336;12.406;2023-08-17T06:47:57;20.00;99.90
24518;DHT22;12678;51.336;12.406;2023-08-17T06:50:23;20.10;99.90
24518;DHT22;12678;51.336;12.406;2023-08-17T06:52:48;20.50;99.90
24518;DHT22;12678;51.336;12.406;2023-08-17T06:55:14;21.00;99.90
24518;DHT22;12678;51.336;12.406;2023-08-17T06:57:41;21.10;99.90
24518;DHT22;12678;51.336;12.406;2023-08-17T07:00:07;20.90;99.90
24518;DHT22;12678;51.336;12.406;2023-08-17T07:02:33;21.00;99.90
24518;DHT22;12678;51.336;12.406;2023-08-17T07:05:00;21.50;99.90
24518;DHT22;12678;51.336;12.406;2023-08-17T07:07:26;21.90;99.90
24518;DHT22;12678;51.336;12.406;2023-08-17T07:09:52;22.00;99.90
24518;DHT22;12678;51.336;12.406;2023-08-17T07:12:17;22.50;99.90
24518;DHT22;12678;51.336;12.406;2023-08-17T07:14:44;22.60;99.90
24518;DHT22;12678;51.336;12.406;2023-08-17T07:17:10;22.70;99.90
24518;DHT22;12678;51.336;12.406;2023-08-17T07:19:35;22.60;99.90
24518;DHT22;12678;51.336;12.406;2023-08-17T07:22:01;22.20;99.90
24518;DHT22;12678;51.336;12.406;2023-08-17T07:24:27;22.10;99.90
24518;DHT22;12678;51.336;12.406;2023-08-17T07:26:52;22.10;99.90
24518;DHT22;12678;51.336;12.406;2023-08-17T07:29:18;21.90;99.90
24518;DHT22;12678;51.336;12.406;2023-08-17T07:31:43;21.50;99.90
24518;DHT22;12678;51.336;12.406;2023-08-17T07:34:10;21.20;99.90
24518;DHT22;12678;51.336;12.406;2023-08-17T07:36:35;20.90;99.90
24518;DHT22;12678;51.336;12.406;2023-08-17T07:39:01;20.70;99.90
24518;DHT22;12678;51.336;12.406;2023-08-17T07:41:27;20.60;99.90
24518;DHT22;12678;51.336;12.406;2023-08-17T07:43:52;20.60;99.90
24518;DHT22;12678;51.336;12.406;2023-08-17T07:46:18;20.50;99.90
24518;DHT22;12678;51.336;12.406;2023-08-17T07:48:43;20.60;99.90
24518;DHT22;12678;51.336;12.406;2023-08-17T07:51:09;20.60;99.90
24518;DHT22;12678;51.336;12.406;2023-08-17T07:53:35;20.90;99.90
24518;DHT22;12678;51.336;12.406;2023-08-17T07:56:00;21.00;99.90
24518;DHT22;12678;51.336;12.406;2023-08-17T07:58:26;21.10;99.90
24518;DHT22;12678;51.336;12.406;2023-08-17T08:00:51;21.00;99.90
24518;DHT22;12678;51.336;12.406;2023-08-17T08:03:18;20.70;99.90
24518;DHT22;12678;51.336;12.406;2023-08-17T08:05:43;20.60;99.90
24518;DHT22;12678;51.336;12.406;2023-08-17T08:08:09;20.50;99.90
24518;DHT22;12678;51.336;12.406;2023-08-17T08:10:34;20.50;99.90
24518;DHT22;12678;51.336;12.406;2023-08-17T08:13:00;20.50;99.90
24518;DHT22;12678;51.336;12.406;2023-08-17T08:15:26;20.60;99.90
24518;DHT22;12678;51.336;12.406;2023-08-17T08:17:51;20.50;99.90
24518;DHT22;12678;51.336;12.406;2023-08-17T08:20:17;20.50;99.90
24518;DHT22;12678;51.336;12.406;2023-08-17T08:22:42;20.70;99.90
24518;DHT22;12678;51.336;12.406;2023-08-17T08:25:08;21.00;99.90
24518;DHT22;12678;51.336;12.406;2023-08-17T08:27:34;21.20;99.90
24518;DHT22;12678;51.336;12.406;2023-08-17T08:29:59;21.40;99.90
24518;DHT22;12678;51.336;12.406;2023-08-17T08:32:25;21.70;99.90
24518;DHT22;12678;51.336;12.406;2023-08-17T08:34:50;21.70;99.90
24518;DHT22;12678;51.336;12.406;2023-08-17T08:37:16;21.70;99.90
24518;DHT22;12678;51.336;12.406;2023-08-17T08:39:49;22.30;99.90
24518;DHT22;12678;51.336;12.406;2023-08-17T08:42:15;22.80;99.90
24518;DHT22;12678;51.336;12.406;2023-08-17T08:44:41;23.00;99.90
24518;DHT22;12678;51.336;12.406;2023-08-17T08:47:07;23.10;99.90
24518;DHT22;12678;51.336;12.406;2023-08-17T08:49:34;22.80;99.90
24518;DHT22;12678;51.336;12.406;2023-08-17T08:52:02;22.90;99.90
24518;DHT22;12678;51.336;12.406;2023-08-17T08:54:30;23.20;99.90
24518;DHT22;12678;51.336;12.406;2023-08-17T08:57:01;23.30;99.90
24518;DHT22;12678;51.336;12.406;2023-08-17T08:59:28;23.50;99.90
24518;DHT22;12678;51.336;12.406;2023-08-17T09:01:56;23.30;99.90
24518;DHT22;12678;51.336;12.406;2023-08-17T09:04:23;23.30;99.90
24518;DHT22;12678;51.336;12.406;2023-08-17T09:06:50;23.10;99.90
24518;DHT22;12678;51.336;12.406;2023-08-17T09:09:18;22.70;99.90
24518;DHT22;12678;51.336;12.406;2023-08-17T09:11:44;22.50;99.90
24518;DHT22;12678;51.336;12.406;2023-08-17T09:14:09;22.40;99.90
24518;DHT22;12678;51.336;12.406;2023-08-17T09:16:35;22.40;99.90
24518;DHT22;12678;51.336;12.406;2023-08-17T09:19:01;22.30;99.90
24518;DHT22;12678;51.336;12.406;2023-08-17T09:21:31;22.30;99.90
24518;DHT22;12678;51.336;12.406;2023-08-17T09:23:57;22.60;99.90
24518;DHT22;12678;51.336;12.406;2023-08-17T09:26:23;22.90;99.90
24518;DHT22;12678;51.336;12.406;2023-08-17T09:28:50;23.40;99.90
24518;DHT22;12678;51.336;12.406;2023-08-17T09:31:15;23.40;99.90
24518;DHT22;12678;51.336;12.406;2023-08-17T09:33:41;23.30;99.90
24518;DHT22;12678;51.336;12.406;2023-08-17T09:36:06;23.30;99.90
24518;DHT22;12678;51.336;12.406;2023-08-17T09:38:34;23.60;99.90
24518;DHT22;12678;51.336;12.406;2023-08-17T09:41:03;24.00;99.90
24518;DHT22;12678;51.336;12.406;2023-08-17T09:43:29;23.90;99.90
24518;DHT22;12678;51.336;12.406;2023-08-17T09:45:58;23.90;99.90
24518;DHT22;12678;51.336;12.406;2023-08-17T09:48:25;23.60;99.90
24518;DHT22;12678;51.336;12.406;2023-08-17T09:50:50;23.60;99.90
24518;DHT22;12678;51.336;12.406;2023-08-17T09:53:19;23.80;99.90
24518;DHT22;12678;51.336;12.406;2023-08-17T09:55:45;23.70;99.90
24518;DHT22;12678;51.336;12.406;2023-08-17T09:58:12;23.50;99.90
24518;DHT22;12678;51.336;12.406;2023-08-17T10:00:44;23.50;99.90
24518;DHT22;12678;51.336;12.406;2023-08-17T10:03:13;23.30;99.90
24518;DHT22;12678;51.336;12.406;2023-08-17T10:05:40;23.60;99.90
24518;DHT22;12678;51.336;12.406;2023-08-17T10:08:07;24.00;99.90
24518;DHT22;12678;51.336;12.406;2023-08-17T10:10:39;24.30;99.90
24518;DHT22;12678;51.336;12.406;2023-08-17T10:13:28;24.30;99.90
24518;DHT22;12678;51.336;12.406;2023-08-17T10:16:13;24.50;99.90
24518;DHT22;12678;51.336;12.406;2023-08-17T10:18:54;23.90;99.90
24518;DHT22;12678;51.336;12.406;2023-08-17T10:21:54;24.00;99.90
24518;DHT22;12678;51.336;12.406;2023-08-17T10:24:23;24.40;99.90
24518;DHT22;12678;51.336;12.406;2023-08-17T10:26:49;24.50;99.90
24518;DHT22;12678;51.336;12.406;2023-08-17T10:29:15;24.70;99.90
24518;DHT22;12678;51.336;12.406;2023-08-17T10:31:44;25.00;99.90
24518;DHT22;12678;51.336;12.406;2023-08-17T10:34:10;25.20;99.90
24518;DHT22;12678;51.336;12.406;2023-08-17T10:36:36;25.40;99.90
24518;DHT22;12678;51.336;12.406;2023-08-17T10:39:21;25.60;99.90
24518;DHT22;12678;51.336;12.406;2023-08-17T10:41:47;25.60;99.90
24518;DHT22;12678;51.336;12.406;2023-08-17T10:44:13;25.60;99.90
24518;DHT22;12678;51.336;12.406;2023-08-17T10:46:39;25.60;99.90
24518;DHT22;12678;51.336;12.406;2023-08-17T10:49:07;25.60;99.90
24518;DHT22;12678;51.336;12.406;2023-08-17T10:51:34;25.80;99.90
24518;DHT22;12678;51.336;12.406;2023-08-17T10:54:02;25.80;99.90
24518;DHT22;12678;51.336;12.406;2023-08-17T10:56:28;25.90;99.90
24518;DHT22;12678;51.336;12.406;2023-08-17T10:58:54;26.00;99.90
24518;DHT22;12678;51.336;12.406;2023-08-17T11:01:33;26.10;99.90
24518;DHT22;12678;51.336;12.406;2023-08-17T11:04:13;26.20;99.90
24518;DHT22;12678;51.336;12.406;2023-08-17T11:06:43;26.20;99.90
24518;DHT22;12678;51.336;12.406;2023-08-17T11:09:09;26.20;99.90
24518;DHT22;12678;51.336;12.406;2023-08-17T11:11:34;26.30;99.90
24518;DHT22;12678;51.336;12.406;2023-08-17T11:14:00;26.40;99.90
24518;DHT22;12678;51.336;12.406;2023-08-17T11:16:25;26.50;99.90
24518;DHT22;12678;51.336;12.406;2023-08-17T11:18:51;26.40;99.90
24518;DHT22;12678;51.336;12.406;2023-08-17T11:21:17;26.40;99.90
24518;DHT22;12678;51.336;12.406;2023-08-17T11:23:43;26.50;99.90
24518;DHT22;12678;51.336;12.406;2023-08-17T11:26:09;26.60;99.90
24518;DHT22;12678;51.336;12.406;2023-08-17T11:28:35;26.40;99.90
24518;DHT22;12678;51.336;12.406;2023-08-17T11:31:07;26.30;99.90
24518;DHT22;12678;51.336;12.406;2023-08-17T11:33:34;26.30;99.90
24518;DHT22;12678;51.336;12.406;2023-08-17T11:36:01;26.20;99.90
24518;DHT22;12678;51.336;12.406;2023-08-17T11:38:38;26.10;99.90
24518;DHT22;12678;51.336;12.406;2023-08-17T11:41:04;26.20;99.90
24518;DHT22;12678;51.336;12.406;2023-08-17T11:43:32;26.30;99.90
24518;DHT22;12678;51.336;12.406;2023-08-17T11:45:58;26.50;99.90
24518;DHT22;12678;51.336;12.406;2023-08-17T11:48:24;26.50;99.90
24518;DHT22;12678;51.336;12.406;2023-08-17T11:50:52;26.40;99.90
24518;DHT22;12678;51.336;12.406;2023-08-17T11:53:17;26.50;99.90
24518;DHT22;12678;51.336;12.406;2023-08-17T11:55:43;26.60;99.90
24518;DHT22;12678;51.336;12.406;2023-08-17T11:58:09;26.70;99.90
24518;DHT22;12678;51.336;12.406;2023-08-17T12:00:42;26.60;99.90
24518;DHT22;12678;51.336;12.406;2023-08-17T12:03:13;26.60;99.90
24518;DHT22;12678;51.336;12.406;2023-08-17T12:05:40;26.50;99.90
24518;DHT22;12678;51.336;12.406;2023-08-17T12:08:07;26.60;99.90
24518;DHT22;12678;51.336;12.406;2023-08-17T12:10:33;26.60;99.90
24518;DHT22;12678;51.336;12.406;2023-08-17T12:12:59;26.60;99.90
24518;DHT22;12678;51.336;12.406;2023-08-17T12:15:30;26.60;99.90
24518;DHT22;12678;51.336;12.406;2023-08-17T12:17:59;26.50;99.90
24518;DHT22;12678;51.336;12.406;2023-08-17T12:20:25;26.40;99.90
24518;DHT22;12678;51.336;12.406;2023-08-17T12:22:50;26.40;99.90
24518;DHT22;12678;51.336;12.406;2023-08-17T12:25:16;26.50;99.90
24518;DHT22;12678;51.336;12.406;2023-08-17T12:27:47;26.60;99.90
24518;DHT22;12678;51.336;12.406;2023-08-17T12:30:23;26.60;99.90
24518;DHT22;12678;51.336;12.406;2023-08-17T12:32:49;26.70;99.90
24518;DHT22;12678;51.336;12.406;2023-08-17T12:35:15;26.80;99.90
24518;DHT22;12678;51.336;12.406;2023-08-17T12:37:40;26.90;99.90
24518;DHT22;12678;51.336;12.406;2023-08-17T12:40:06;26.90;99.90
24518;DHT22;12678;51.336;12.406;2023-08-17T12:42:33;26.90;99.90
24518;DHT22;12678;51.336;12.406;2023-08-17T12:44:58;26.90;99.90
24518;DHT22;12678;51.336;12.406;2023-08-17T12:47:24;26.90;99.90
24518;DHT22;12678;51.336;12.406;2023-08-17T12:49:50;27.00;99.90
24518;DHT22;12678;51.336;12.406;2023-08-17T12:52:15;27.00;99.90
24518;DHT22;12678;51.336;12.406;2023-08-17T12:54:41;27.10;99.90
24518;DHT22;12678;51.336;12.406;2023-08-17T12:57:06;27.10;99.90
24518;DHT22;12678;51.336;12.406;2023-08-17T12:59:32;27.10;99.90
24518;DHT22;12678;51.336;12.406;2023-08-17T13:01:58;27.00;99.90
24518;DHT22;12678;51.336;12.406;2023-08-17T13:04:23;27.00;99.90
24518;DHT22;12678;51.336;12.406;2023-08-17T13:06:49;27.10;99.90
24518;DHT22;12678;51.336;12.406;2023-08-17T13:09:16;27.10;99.90
24518;DHT22;12678;51.336;12.406;2023-08-17T13:11:44;27.20;99.90
24518;DHT22;12678;51.336;12.406;2023-08-17T13:14:10;27.20;99.90
24518;DHT22;12678;51.336;12.406;2023-08-17T13:16:35;27.20;99.90
24518;DHT22;12678;51.336;12.406;2023-08-17T13:19:01;27.10;99.90
24518;DHT22;12678;51.336;12.406;2023-08-17T13:21:26;27.00;99.90
24518;DHT22;12678;51.336;12.406;2023-08-17T13:23:52;27.00;99.90
24518;DHT22;12678;51.336;12.406;2023-08-17T13:26:17;27.10;99.90
24518;DHT22;12678;51.336;12.406;2023-08-17T13:28:43;27.20;99.90
24518;DHT22;12678;51.336;12.406;2023-08-17T13:31:08;27.20;99.90
24518;DHT22;12678;51.336;12.406;2023-08-17T13:33:34;27.30;99.90
24518;DHT22;12678;51.336;12.406;2023-08-17T13:35:59;27.40;99.90
24518;DHT22;12678;51.336;12.406;2023-08-17T13:38:25;27.40;99.90
24518;DHT22;12678;51.336;12.406;2023-08-17T13:40:51;27.50;99.90
24518;DHT22;12678;51.336;12.406;2023-08-17T13:43:16;27.60;99.90
24518;DHT22;12678;51.336;12.406;2023-08-17T13:45:42;27.50;99.90
24518;DHT22;12678;51.336;12.406;2023-08-17T13:48:08;27.40;99.90
24518;DHT22;12678;51.336;12.406;2023-08-17T13:50:36;27.20;99.90
24518;DHT22;12678;51.336;12.406;2023-08-17T13:53:02;27.20;99.90
24518;DHT22;12678;51.336;12.406;2023-08-17T13:55:28;27.20;99.90
24518;DHT22;12678;51.336;12.406;2023-08-17T13:57:54;27.10;99.90
24518;DHT22;12678;51.336;12.406;2023-08-17T14:00:24;27.10;99.90
24518;DHT22;12678;51.336;12.406;2023-08-17T14:02:50;27.10;99.90
24518;DHT22;12678;51.336;12.406;2023-08-17T14:05:15;27.10;99.90
24518;DHT22;12678;51.336;12.406;2023-08-17T14:07:41;27.00;99.90
24518;DHT22;12678;51.336;12.406;2023-08-17T14:10:07;27.00;99.90
24518;DHT22;12678;51.336;12.406;2023-08-17T14:12:32;27.00;99.90
24518;DHT22;12678;51.336;12.406;2023-08-17T14:14:59;26.90;99.90
24518;DHT22;12678;51.336;12.406;2023-08-17T14:17:24;26.90;99.90
24518;DHT22;12678;51.336;12.406;2023-08-17T14:19:50;26.80;99.90
24518;DHT22;12678;51.336;12.406;2023-08-17T14:22:16;26.80;99.90
24518;DHT22;12678;51.336;12.406;2023-08-17T14:24:41;26.70;99.90
24518;DHT22;12678;51.336;12.406;2023-08-17T14:27:07;26.70;99.90
24518;DHT22;12678;51.336;12.406;2023-08-17T14:29:33;26.70;99.90
24518;DHT22;12678;51.336;12.406;2023-08-17T14:31:58;26.70;99.90
24518;DHT22;12678;51.336;12.406;2023-08-17T14:34:24;26.70;99.90
24518;DHT22;12678;51.336;12.406;2023-08-17T14:36:50;26.80;99.90
24518;DHT22;12678;51.336;12.406;2023-08-17T14:39:16;26.80;99.90
24518;DHT22;12678;51.336;12.406;2023-08-17T14:41:41;26.80;99.90
24518;DHT22;12678;51.336;12.406;2023-08-17T14:44:07;26.90;99.90
24518;DHT22;12678;51.336;12.406;2023-08-17T14:46:32;26.90;99.90
24518;DHT22;12678;51.336;12.406;2023-08-17T14:48:58;26.90;99.90
24518;DHT22;12678;51.336;12.406;2023-08-17T14:51:24;26.80;99.90
24518;DHT22;12678;51.336;12.406;2023-08-17T14:53:50;26.80;99.90
24518;DHT22;12678;51.336;12.406;2023-08-17T14:56:15;26.80;99.90
24518;DHT22;12678;51.336;12.406;2023-08-17T14:58:41;26.80;99.90
24518;DHT22;12678;51.336;12.406;2023-08-17T15:01:07;26.80;99.90
24518;DHT22;12678;51.336;12.406;2023-08-17T15:03:33;26.80;99.90
24518;DHT22;12678;51.336;12.406;2023-08-17T15:05:58;26.80;99.90
24518;DHT22;12678;51.336;12.406;2023-08-17T15:08:24;26.80;99.90
24518;DHT22;12678;51.336;12.406;2023-08-17T15:10:50;26.80;99.90